Time;durP1;ratioP1;P1;durP2;ratioP2;P2;SDS_P1;SDS_P2;PMS_P1;PMS_P2;Temp;Humidity;BMP_temperature;BMP_pressure;BME280_temperature;BME280_humidity;BME280_pressure;Samples;Min_cycle;Max_cycle;Signal;HPM_P1;HPM_P2
2021/12/04 00:01:22;;;;;;;2.57;1.50;;;;;;;-4.96;79.46;95464.63;1800044;80;21095;-68
2021/12/04 00:03:46;;;;;;;2.40;1.33;;;;;;;-4.98;79.03;95462.43;1794538;79;21053;-68
2021/12/04 00:06:29;;;;;;;2.43;1.63;;;;;;;-5.07;78.63;95462.52;1785778;80;21513;-68
2021/12/04 00:08:51;;;;;;;3.87;1.50;;;;;;;-5.16;78.54;95453.59;1792317;80;21540;-68
2021/12/04 00:11:18;;;;;;;2.00;1.40;;;;;;;-5.20;78.53;95459.02;1801353;79;21019;-68
2021/12/04 00:13:45;;;;;;;2.70;1.40;;;;;;;-5.30;78.48;95450.05;1781310;79;21084;-67
2021/12/04 00:16:11;;;;;;;1.30;1.20;;;;;;;-5.30;78.69;95450.05;1795829;80;21129;-68
2021/12/04 00:18:39;;;;;;;2.30;1.60;;;;;;;-5.42;78.18;95453.84;1779727;79;21016;-67
2021/12/04 00:21:05;;;;;;;2.23;1.30;;;;;;;-5.48;78.81;95454.48;1790449;80;21047;-67
2021/12/04 00:23:32;;;;;;;3.30;1.53;;;;;;;-5.47;78.85;95462.65;1780115;79;21058;-67
2021/12/04 00:25:58;;;;;;;2.53;1.60;;;;;;;-5.56;79.22;95467.44;1774850;79;20999;-68
2021/12/04 00:28:25;;;;;;;5.67;2.00;;;;;;;-5.63;79.66;95466.72;1771378;80;21131;-68
2021/12/04 00:30:51;;;;;;;3.07;1.50;;;;;;;-5.62;79.72;95469.33;1778691;79;21020;-68
2021/12/04 00:33:21;;;;;;;2.10;1.00;;;;;;;-5.70;79.26;95470.30;1772497;80;21000;-68
2021/12/04 00:35:49;;;;;;;2.13;1.07;;;;;;;-5.71;79.40;95465.12;1797290;79;21103;-69
2021/12/04 00:49:16;;;;;;;1.03;0.90;;;;;;;-5.82;80.26;95470.20;1788470;80;20973;-67
2021/12/04 00:51:50;;;;;;;1.20;1.00;;;;;;;-5.75;80.40;95462.81;1784268;80;21017;-67
2021/12/04 00:54:15;;;;;;;;;;;;;;;-5.69;79.94;95465.66;1791785;80;21040;-67
2021/12/04 00:56:43;;;;;;;3.10;1.00;;;;;;;-5.61;80.35;95457.38;1783306;79;20120;-67
2021/12/04 00:59:11;;;;;;;2.13;0.87;;;;;;;-5.55;80.24;95455.91;1771794;79;21572;-67
2021/12/04 01:01:41;;;;;;;4.80;1.93;;;;;;;-5.54;79.36;95453.83;1784797;80;21513;-67
2021/12/04 01:04:15;;;;;;;3.00;1.23;;;;;;;-5.62;79.00;95445.33;1770633;79;21024;-67
2021/12/04 01:06:42;;;;;;;1.40;0.90;;;;;;;-5.62;79.18;95444.04;1788869;80;21486;-67
2021/12/04 01:09:13;;;;;;;2.07;0.83;;;;;;;-5.59;79.18;95441.59;1797732;80;20997;-67
2021/12/04 01:11:42;;;;;;;1.20;0.80;;;;;;;-5.62;78.83;95446.61;1797021;80;21058;-68
2021/12/04 01:14:11;;;;;;;2.57;0.70;;;;;;;-5.58;79.17;95442.08;1789984;79;21040;-68
2021/12/04 01:16:38;;;;;;;2.53;1.20;;;;;;;-5.55;79.23;95437.05;1790530;80;21028;-68
2021/12/04 01:19:05;;;;;;;2.30;1.20;;;;;;;-5.58;78.54;95432.66;1771265;80;21084;-68
2021/12/04 01:21:32;;;;;;;6.43;1.70;;;;;;;-5.70;77.68;95442.45;1795743;79;21027;-68
2021/12/04 01:23:58;;;;;;;1.83;1.10;;;;;;;-5.87;78.60;95434.95;1790148;79;20996;-68
2021/12/04 01:26:25;;;;;;;3.63;1.50;;;;;;;-5.94;78.60;95429.11;1785532;79;21481;-68
2021/12/04 01:28:52;;;;;;;5.33;2.40;;;;;;;-6.03;79.31;95427.84;1782636;79;21513;-68
2021/12/04 01:31:20;;;;;;;5.10;2.60;;;;;;;-6.03;78.98;95417.57;1788419;80;21043;-68
2021/12/04 01:33:47;;;;;;;6.70;2.20;;;;;;;-6.06;79.09;95425.16;1795432;80;21036;-68
2021/12/04 01:36:13;;;;;;;4.83;1.20;;;;;;;-5.98;79.73;95421.20;1796883;80;21016;-67
2021/12/04 01:38:41;;;;;;;2.00;0.90;;;;;;;-6.07;79.16;95408.88;1800402;80;21466;-67
2021/12/04 01:41:07;;;;;;;2.00;1.03;;;;;;;-6.11;79.09;95407.85;1801871;80;21020;-67
2021/12/04 01:43:34;;;;;;;3.70;1.70;;;;;;;-6.21;79.46;95407.00;1795560;80;21099;-67
2021/12/04 01:46:00;;;;;;;2.77;1.10;;;;;;;-6.24;79.50;95406.01;1800828;80;21031;-68
2021/12/04 01:48:27;;;;;;;1.23;0.70;;;;;;;-6.16;80.03;95402.06;1800749;79;21039;-67
2021/12/04 01:50:56;;;;;;;1.47;0.90;;;;;;;-6.06;80.01;95404.61;1779056;80;21119;-67
2021/12/04 01:53:25;;;;;;;1.50;0.97;;;;;;;-5.96;79.88;95402.89;1798274;80;21068;-67
2021/12/04 01:55:55;;;;;;;2.90;1.47;;;;;;;-5.91;79.35;95406.48;1801612;80;21028;-67
2021/12/04 01:58:24;;;;;;;1.73;1.00;;;;;;;-5.93;78.94;95402.97;1780878;80;21028;-67
2021/12/04 02:00:51;;;;;;;0.80;0.63;;;;;;;-5.97;78.41;95402.40;1790702;79;21083;-68
2021/12/04 02:03:18;;;;;;;1.57;0.83;;;;;;;-6.00;78.46;95396.73;1791538;80;21070;-67
2021/12/04 02:05:49;;;;;;;2.07;1.00;;;;;;;-6.02;78.87;95400.05;1790627;79;21521;-68
2021/12/04 02:08:19;;;;;;;2.73;1.17;;;;;;;-6.01;78.55;95402.70;1800397;80;21059;-68
2021/12/04 02:10:49;;;;;;;1.67;0.87;;;;;;;-5.95;79.01;95401.65;1800495;80;21035;-68
2021/12/04 02:13:17;;;;;;;2.23;1.30;;;;;;;-5.96;78.55;95399.91;1776166;79;21645;-68
2021/12/04 02:15:45;;;;;;;1.90;1.07;;;;;;;-5.90;79.08;95397.57;1784803;80;21039;-68
2021/12/04 02:18:13;;;;;;;3.33;1.40;;;;;;;-5.84;78.08;95385.78;1794820;80;21032;-68
2021/12/04 02:20:41;;;;;;;1.30;0.80;;;;;;;-5.87;77.97;95391.68;1776403;79;21043;-67
2021/12/04 02:23:09;;;;;;;0.97;0.53;;;;;;;-5.88;78.40;95389.91;1795321;79;21047;-67
2021/12/04 02:25:37;;;;;;;0.90;0.60;;;;;;;-5.90;77.76;95387.30;1801299;80;21055;-67
2021/12/04 02:28:06;;;;;;;1.10;0.80;;;;;;;-5.87;78.21;95373.28;1795812;80;21036;-68
2021/12/04 02:30:37;;;;;;;1.43;0.83;;;;;;;-5.95;77.42;95378.52;1790517;79;21023;-67
2021/12/04 02:33:11;;;;;;;1.77;0.77;;;;;;;-6.07;77.29;95381.91;1790666;80;21085;-67
2021/12/04 02:35:34;;;;;;;4.33;2.17;;;;;;;-6.29;77.27;95371.56;1783666;80;21043;-67
2021/12/04 02:38:01;;;;;;;1.33;0.60;;;;;;;-6.46;78.65;95379.83;1780693;80;21040;-68
2021/12/04 02:40:28;;;;;;;2.43;0.90;;;;;;;-6.46;79.21;95377.27;1775365;80;21533;-67
2021/12/04 02:42:54;;;;;;;0.97;0.50;;;;;;;-6.31;79.67;95384.33;1772937;79;21070;-68
2021/12/04 02:45:21;;;;;;;3.47;0.70;;;;;;;-6.16;79.89;95373.81;1801459;80;21020;-68
2021/12/04 02:47:47;;;;;;;2.13;0.90;;;;;;;-6.04;79.30;95374.73;1787872;79;21071;-68
2021/12/04 02:50:16;;;;;;;0.70;0.53;;;;;;;-6.01;78.47;95377.42;1785420;80;21024;-68
2021/12/04 02:52:44;;;;;;;1.33;0.70;;;;;;;-5.97;78.71;95371.58;1770611;79;21070;-68
2021/12/04 02:55:11;;;;;;;1.23;0.50;;;;;;;-5.96;77.61;95365.64;1780108;79;20992;-68
2021/12/04 02:57:43;;;;;;;0.70;0.50;;;;;;;-6.06;77.75;95369.94;1781510;79;20980;-68
2021/12/04 03:00:08;;;;;;;0.80;0.60;;;;;;;-6.06;77.79;95364.80;1790368;80;21028;-68
2021/12/04 03:02:35;;;;;;;0.63;0.57;;;;;;;-6.06;78.03;95359.25;1775560;80;21497;-67
2021/12/04 03:05:06;;;;;;;0.87;0.60;;;;;;;-6.03;78.37;95354.23;1801349;79;21015;-67
2021/12/04 03:07:29;;;;;;;1.03;0.50;;;;;;;-6.00;78.08;95358.61;1801265;80;21048;-67
2021/12/04 03:09:56;;;;;;;0.80;0.60;;;;;;;-6.00;78.08;95350.91;1785470;80;21062;-67
2021/12/04 03:12:24;;;;;;;0.83;0.50;;;;;;;-6.01;77.62;95358.16;1782036;79;21120;-67
2021/12/04 03:14:53;;;;;;;1.20;0.40;;;;;;;-6.11;76.90;95355.62;1770622;79;21027;-68
2021/12/04 03:17:21;;;;;;;1.07;0.40;;;;;;;-6.17;77.07;95345.11;1775813;79;21071;-67
2021/12/04 03:19:53;;;;;;;1.07;0.43;;;;;;;-6.25;77.08;95348.62;1799949;79;21008;-67
2021/12/04 03:22:20;;;;;;;0.50;0.30;;;;;;;-6.39;76.87;95351.91;1779938;80;21532;-67
2021/12/04 03:24:47;;;;;;;0.80;0.40;;;;;;;-6.51;77.18;95350.11;1783151;80;21521;-67
2021/12/04 03:27:16;;;;;;;0.80;0.53;;;;;;;-6.65;77.76;95351.20;1797854;80;21146;-68
2021/12/04 03:29:49;;;;;;;1.00;0.47;;;;;;;-6.59;78.28;95357.48;1795480;79;21599;-68
2021/12/04 03:43:00;;;;;;;;;;;;;;;-6.66;77.56;95352.03;1782357;79;21066;-67
2021/12/04 03:45:27;;;;;;;0.57;0.53;;;;;;;-6.68;77.92;95348.52;1784638;80;20096;-67
2021/12/04 03:48:02;;;;;;;0.40;0.40;;;;;;;-6.66;77.98;95354.19;1800714;80;21011;-67
2021/12/04 03:50:22;;;;;;;0.80;0.50;;;;;;;-6.62;78.36;95348.38;1799930;80;20992;-67
2021/12/04 03:52:49;;;;;;;0.40;0.30;;;;;;;-6.59;78.05;95349.80;1801598;80;21497;-68
2021/12/04 03:55:15;;;;;;;2.27;0.50;;;;;;;-6.54;78.12;95347.42;1778878;80;21039;-68
2021/12/04 03:57:45;;;;;;;0.97;0.50;;;;;;;-6.50;78.08;95347.13;1772588;80;20992;-68
2021/12/04 04:00:18;;;;;;;0.40;0.20;;;;;;;-6.44;78.35;95352.13;1780303;80;21044;-68
2021/12/04 04:02:47;;;;;;;0.27;0.20;;;;;;;-6.54;77.29;95354.71;1800904;79;21576;-68
2021/12/04 04:05:14;;;;;;;2.50;0.67;;;;;;;-6.64;77.11;95350.00;1790559;80;21547;-68
2021/12/04 04:07:40;;;;;;;0.83;0.67;;;;;;;-6.83;77.03;95351.30;1785391;79;21031;-68
2021/12/04 04:10:09;;;;;;;0.60;0.47;;;;;;;-6.76;77.98;95344.34;1801335;80;21451;-68
2021/12/04 04:12:36;;;;;;;0.60;0.33;;;;;;;-6.70;77.96;95352.32;1796327;79;21031;-67
2021/12/04 04:15:04;;;;;;;0.63;0.40;;;;;;;-6.68;77.89;95353.65;1789877;80;21063;-68
2021/12/04 04:17:32;;;;;;;1.67;0.40;;;;;;;-6.64;77.95;95347.84;1794821;80;21493;-68
2021/12/04 04:19:59;;;;;;;0.40;0.30;;;;;;;-6.60;78.12;95346.77;1792447;80;21063;-68
2021/12/04 04:22:25;;;;;;;0.63;0.40;;;;;;;-6.53;78.27;95354.30;1789972;80;21019;-67
2021/12/04 04:24:52;;;;;;;1.10;0.50;;;;;;;-6.54;77.55;95350.86;1794991;80;21133;-67
2021/12/04 04:27:18;;;;;;;10.53;4.17;;;;;;;-6.64;77.67;95351.70;1751409;80;21522;-67
2021/12/04 04:29:45;;;;;;;6.17;2.13;;;;;;;-6.68;78.08;95351.95;1801276;79;21019;-67
2021/12/04 04:32:11;;;;;;;10.67;2.63;;;;;;;-6.70;77.66;95353.61;1785213;80;21102;-67
2021/12/04 04:34:38;;;;;;;8.70;1.43;;;;;;;-6.76;77.83;95353.33;1795956;80;21051;-67
2021/12/04 05:18:15;;;;;;;0.40;0.30;;;;;;;-7.00;77.37;95346.73;1774635;80;21086;-67
2021/12/04 05:20:38;;;;;;;1.10;0.73;;;;;;;-7.00;77.59;95345.05;1780722;79;21063;-67
2021/12/04 05:23:07;;;;;;;0.60;0.47;;;;;;;-7.07;78.24;95353.69;1785400;79;21123;-67
2021/12/04 05:25:36;;;;;;;0.27;0.27;;;;;;;-7.15;78.35;95346.94;1794675;79;21024;-67
2021/12/04 05:28:05;;;;;;;0.77;0.50;;;;;;;-7.10;78.36;95346.73;1802028;80;21209;-67
2021/12/04 05:30:32;;;;;;;0.30;0.30;;;;;;;-7.14;78.36;95349.96;1780395;80;21513;-67
2021/12/04 05:32:58;;;;;;;1.47;0.60;;;;;;;-7.08;78.61;95341.66;1784748;79;21532;-67
2021/12/04 05:35:26;;;;;;;0.60;0.30;;;;;;;-6.99;78.76;95347.20;1790926;80;20984;-67
2021/12/04 05:37:53;;;;;;;0.47;0.30;;;;;;;-6.93;78.55;95339.76;1785331;79;21016;-67
2021/12/04 05:40:20;;;;;;;0.20;0.20;;;;;;;-6.97;78.07;95346.87;1788346;80;21036;-67
2021/12/04 05:42:48;;;;;;;0.70;0.30;;;;;;;-7.06;77.81;95338.76;1782507;80;21510;-67
2021/12/04 05:45:23;;;;;;;1.03;0.67;;;;;;;-7.07;78.22;95339.58;1802088;80;21015;-67
2021/12/04 05:47:53;;;;;;;2.67;0.53;;;;;;;-6.96;78.68;95338.34;1799197;80;21032;-67
2021/12/04 05:53:15;;;;;;;5.57;1.70;;;;;;;-6.95;78.00;95340.12;1788763;80;21165;-67
2021/12/04 05:55:40;;;;;;;2.17;0.70;;;;;;;-6.99;77.90;95336.53;1797001;80;21027;-66
2021/12/04 05:57:59;;;;;;;2.83;0.70;;;;;;;-6.94;77.86;95337.14;1797547;80;21047;-67
2021/12/04 06:00:26;;;;;;;12.53;5.50;;;;;;;-7.04;77.58;95338.02;1789870;80;21051;-67
2021/12/04 06:02:53;;;;;;;2.67;1.10;;;;;;;-7.17;77.68;95339.58;1770627;80;21020;-67
2021/12/04 06:05:20;;;;;;;3.07;0.87;;;;;;;-7.14;78.49;95336.27;1775285;79;21093;-67
2021/12/04 06:07:46;;;;;;;3.80;1.30;;;;;;;-7.05;78.52;95331.56;1797641;80;21040;-67
2021/12/04 06:10:13;;;;;;;2.60;1.20;;;;;;;-7.08;78.10;95331.02;1790109;80;21070;-67
2021/12/04 06:12:40;;;;;;;5.27;2.10;;;;;;;-7.06;77.98;95333.22;1776679;80;21053;-67
2021/12/04 06:15:08;;;;;;;10.97;3.87;;;;;;;-7.11;78.55;95335.98;1770454;80;21108;-67
2021/12/04 06:17:35;;;;;;;3.93;1.90;;;;;;;-7.06;78.95;95338.76;1779752;80;21016;-67
2021/12/04 06:22:46;;;;;;;13.93;5.10;;;;;;;-6.91;78.48;95331.73;1774546;80;21003;-67
2021/12/04 06:25:24;;;;;;;12.67;5.43;;;;;;;-6.87;78.52;95332.34;1784969;79;21004;-67
2021/12/04 06:27:50;;;;;;;12.07;6.03;;;;;;;-6.96;78.40;95329.37;1787471;80;20996;-67
2021/12/04 06:30:19;;;;;;;9.43;4.07;;;;;;;-6.96;79.08;95331.52;1775490;80;21000;-67
2021/12/04 06:32:48;;;;;;;1.87;1.00;;;;;;;-7.05;79.73;95322.17;1778614;79;21024;-67
2021/12/04 06:35:17;;;;;;;3.13;1.00;;;;;;;-7.05;79.20;95328.58;1791558;79;21074;-67
2021/12/04 06:37:45;;;;;;;4.60;1.70;;;;;;;-7.01;79.70;95324.45;1789702;79;20984;-67
2021/12/04 06:40:12;;;;;;;4.43;2.50;;;;;;;-6.98;79.78;95322.91;1801458;80;21028;-67
2021/12/04 06:42:41;;;;;;;15.53;8.33;;;;;;;-6.92;79.75;95326.14;1801111;80;21155;-67
2021/12/04 06:45:09;;;;;;;6.77;3.07;;;;;;;-6.92;80.21;95317.17;1778645;79;21025;-66
2021/12/04 06:47:38;;;;;;;5.10;2.93;;;;;;;-6.81;80.18;95321.05;1777178;80;21059;-67
2021/12/04 06:50:15;;;;;;;10.93;5.27;;;;;;;-6.76;80.07;95320.84;1782922;80;21031;-67
2021/12/04 06:52:41;;;;;;;63.90;26.25;;;;;;;-6.70;79.85;95318.97;1779401;80;21056;-67
2021/12/04 06:55:06;;;;;;;53.10;24.93;;;;;;;-6.57;80.43;95319.08;1770857;80;21089;-66
2021/12/04 06:57:37;;;;;;;43.10;18.30;;;;;;;-6.41;79.95;95321.86;1794807;80;21063;-67
2021/12/04 07:00:04;;;;;;;65.37;28.37;;;;;;;-6.25;80.08;95315.23;1775089;80;21048;-67
2021/12/04 07:02:31;;;;;;;17.53;8.30;;;;;;;-6.11;79.56;95312.83;1773366;80;21028;-67
2021/12/04 07:04:57;;;;;;;7.93;4.17;;;;;;;-6.05;78.89;95312.60;1800571;80;21055;-67
2021/12/04 07:07:24;;;;;;;7.00;3.43;;;;;;;-6.07;78.62;95302.29;1801515;80;21488;-67
2021/12/04 07:09:50;;;;;;;10.10;5.53;;;;;;;-6.16;78.47;95312.19;1800669;80;21059;-67
2021/12/04 07:12:17;;;;;;;9.67;4.77;;;;;;;-6.18;79.01;95306.97;1776628;80;21505;-67
2021/12/04 07:14:44;;;;;;;13.13;6.67;;;;;;;-6.17;79.59;95310.03;1779921;79;21047;-67
2021/12/04 07:17:11;;;;;;;11.50;4.90;;;;;;;-6.08;80.02;95308.22;1789417;79;21096;-67
2021/12/04 07:19:38;;;;;;;12.13;6.43;;;;;;;-5.98;79.72;95305.62;1775497;80;21028;-67
2021/12/04 07:22:07;;;;;;;11.50;6.30;;;;;;;-5.88;79.59;95294.44;1785974;79;21108;-66
2021/12/04 07:24:34;;;;;;;10.90;5.33;;;;;;;-5.84;79.27;95289.44;1787323;80;21529;-67
2021/12/04 07:27:01;;;;;;;8.03;4.17;;;;;;;-5.88;78.97;95295.72;1790875;80;21000;-67
2021/12/04 07:29:28;;;;;;;15.87;7.17;;;;;;;-5.87;79.22;95291.06;1772364;80;21630;-66
2021/12/04 07:31:54;;;;;;;20.60;9.63;;;;;;;-5.84;79.47;95290.72;1796280;80;21024;-67
2021/12/04 07:34:21;;;;;;;12.50;6.13;;;;;;;-5.69;80.02;95288.33;1799160;79;21001;-67
2021/12/04 07:36:47;;;;;;;28.23;12.70;;;;;;;-5.65;79.61;95296.59;1776747;80;21028;-67
2021/12/04 07:39:14;;;;;;;29.40;16.73;;;;;;;-5.61;79.63;95288.61;1775079;80;21161;-67
2021/12/04 07:41:42;;;;;;;30.50;13.73;;;;;;;-5.45;80.29;95280.64;1775136;80;21051;-67
2021/12/04 07:44:11;;;;;;;30.13;13.87;;;;;;;-5.19;80.80;95278.55;1779503;80;21067;-67
2021/12/04 07:46:39;;;;;;;34.93;19.27;;;;;;;-4.95;80.56;95275.58;1775248;80;21074;-67
2021/12/04 07:49:07;;;;;;;34.13;19.07;;;;;;;-4.74;80.06;95269.00;1780721;79;21067;-67
2021/12/04 07:51:34;;;;;;;43.67;17.80;;;;;;;-4.60;79.29;95273.35;1785922;80;21055;-67
2021/12/04 07:54:01;;;;;;;34.00;17.50;;;;;;;-4.54;78.59;95279.98;1777843;80;21035;-67
2021/12/04 07:56:28;;;;;;;24.73;12.37;;;;;;;-4.42;78.70;95280.39;1781482;80;21096;-67
2021/12/04 07:58:55;;;;;;;24.77;13.30;;;;;;;-4.42;78.67;95279.11;1778905;80;21074;-67
2021/12/04 08:01:22;;;;;;;18.17;8.27;;;;;;;-4.37;78.33;95277.56;1801223;80;21114;-67
2021/12/04 08:03:49;;;;;;;16.67;9.03;;;;;;;-4.45;78.00;95274.28;1781694;79;21032;-67
2021/12/04 08:06:15;;;;;;;19.80;10.40;;;;;;;-4.54;78.14;95270.97;1790157;80;21044;-67
2021/12/04 08:08:43;;;;;;;23.17;10.50;;;;;;;-4.57;78.75;95275.61;1785990;80;21031;-67
2021/12/04 08:11:09;;;;;;;25.43;11.27;;;;;;;-4.52;79.18;95274.89;1800236;79;21039;-67
2021/12/04 08:13:36;;;;;;;31.23;15.50;;;;;;;-4.48;79.34;95267.75;1789908;80;21024;-67
2021/12/04 08:16:03;;;;;;;51.23;25.50;;;;;;;-4.37;79.81;95267.25;1784905;80;21032;-67
2021/12/04 08:18:29;;;;;;;35.00;17.90;;;;;;;-4.30;80.41;95264.90;1792033;80;21012;-68
2021/12/04 08:20:56;;;;;;;33.50;15.60;;;;;;;-4.24;80.00;95265.95;1788247;80;21454;-67
2021/12/04 08:23:22;;;;;;;28.17;13.17;;;;;;;-4.12;80.24;95267.19;1772902;79;21088;-67
2021/12/04 08:25:49;;;;;;;30.20;16.87;;;;;;;-3.98;80.38;95270.67;1798798;80;21027;-67
2021/12/04 08:28:16;;;;;;;59.43;23.87;;;;;;;-3.85;80.30;95264.19;1789087;80;20992;-67
2021/12/04 08:30:43;;;;;;;55.90;24.27;;;;;;;-3.77;80.10;95262.72;1786177;80;21080;-67
2021/12/04 08:33:12;;;;;;;51.23;21.07;;;;;;;-3.61;80.48;95267.05;1770165;80;21076;-67
2021/12/04 08:35:40;;;;;;;149.20;91.37;;;;;;;-3.38;80.94;95269.88;1770871;80;21091;-67
2021/12/04 08:38:10;;;;;;;24.03;13.90;;;;;;;-3.29;79.09;95262.84;1794619;79;21047;-67
2021/12/04 08:40:39;;;;;;;15.03;8.10;;;;;;;-3.14;79.54;95261.11;1776982;79;21071;-67
2021/12/04 08:43:08;;;;;;;11.93;7.30;;;;;;;-2.92;79.53;95255.72;1780052;79;21032;-67
2021/12/04 08:45:34;;;;;;;12.37;6.30;;;;;;;-2.77;79.54;95251.78;1795159;79;21028;-67
2021/12/04 08:48:01;;;;;;;17.23;7.33;;;;;;;-2.66;79.11;95253.82;1789457;79;21055;-67
2021/12/04 08:50:31;;;;;;;124.80;68.73;;;;;;;-2.54;78.93;95245.95;1785666;79;21099;-67
2021/12/04 08:53:00;;;;;;;21.67;12.10;;;;;;;-2.54;77.87;95242.95;1793481;79;21560;-68
2021/12/04 08:55:30;;;;;;;14.23;8.40;;;;;;;-2.44;78.35;95235.02;1800423;80;21536;-68
2021/12/04 08:57:57;;;;;;;15.13;8.53;;;;;;;-2.27;78.49;95239.29;1800222;79;21067;-67
2021/12/04 09:00:29;;;;;;;15.37;7.00;;;;;;;-2.14;78.43;95236.58;1783042;80;21023;-67
2021/12/04 09:02:57;;;;;;;9.83;5.40;;;;;;;-2.07;78.30;95231.59;1790410;80;21020;-67
2021/12/04 09:05:24;;;;;;;11.70;5.30;;;;;;;-1.91;78.34;95225.52;1780666;80;21056;-67
2021/12/04 09:07:53;;;;;;;9.13;4.57;;;;;;;-1.72;78.56;95223.78;1770655;80;21012;-67
2021/12/04 09:10:21;;;;;;;9.40;4.23;;;;;;;-1.60;77.57;95220.17;1770547;79;21036;-67
2021/12/04 09:12:49;;;;;;;9.73;4.80;;;;;;;-1.50;76.77;95221.25;1784896;79;21118;-68
2021/12/04 09:15:21;;;;;;;54.70;29.47;;;;;;;-1.39;77.47;95211.12;1792210;80;21091;-68
2021/12/04 09:17:48;;;;;;;9.13;5.97;;;;;;;-1.29;76.94;95209.60;1794408;79;21039;-68
2021/12/04 09:20:16;;;;;;;13.03;3.67;;;;;;;-1.15;77.34;95199.11;1789868;80;21525;-68
2021/12/04 09:22:45;;;;;;;18.93;8.90;;;;;;;-1.00;77.24;95194.23;1795932;80;21051;-67
2021/12/04 09:25:17;;;;;;;21.60;11.83;;;;;;;-0.97;75.62;95186.52;1769828;80;21051;-68
2021/12/04 10:16:45;;;;;;;4.80;3.27;;;;;;;4.28;59.75;95079.39;1775323;79;21059;-68
2021/12/04 10:33:20;;;;;;;6.40;3.40;;;;;;;5.85;54.25;95062.39;1780179;79;21028;-68
2021/12/04 10:35:49;;;;;;;10.95;3.52;;;;;;;6.11;54.44;95056.06;1777275;80;21012;-68
2021/12/04 10:38:21;;;;;;;6.80;4.20;;;;;;;6.25;53.93;95058.11;1784443;79;21103;-68
2021/12/04 10:40:50;;;;;;;7.83;4.15;;;;;;;6.28;51.35;95054.14;1795845;80;22128;-69
2021/12/04 10:43:22;;;;;;;43.33;29.12;;;;;;;6.48;52.16;95058.72;1799900;80;21031;-69
2021/12/04 10:45:54;;;;;;;49.15;33.38;;;;;;;6.94;52.69;95058.14;1798074;80;21024;-69
2021/12/04 10:48:26;;;;;;;23.77;19.02;;;;;;;7.07;50.07;95057.98;1776991;79;21097;-67
2021/12/04 10:51:06;;;;;;;22.10;19.25;;;;;;;7.13;50.86;95056.16;1780720;80;21031;-69
2021/12/04 10:53:32;;;;;;;13.10;11.93;;;;;;;7.08;50.25;95057.97;1790021;80;21063;-70
2021/12/04 11:02:04;;;;;;;26.77;12.98;;;;;;;7.48;48.96;95053.44;1794563;79;21012;-72
2021/12/04 11:23:55;;;;;;;8.53;5.62;;;;;;;7.93;46.67;95024.69;1788075;80;21163;-72
2021/12/04 11:26:39;;;;;;;5.97;5.08;;;;;;;8.00;46.30;95021.52;1793990;80;21051;-72
2021/12/04 11:42:25;;;;;;;8.88;6.75;;;;;;;7.19;48.00;95005.80;1775454;79;21016;-72
2021/12/04 11:44:53;;;;;;;10.70;5.62;;;;;;;6.99;48.45;95007.39;1779382;79;21063;-72
2021/12/04 11:47:19;;;;;;;6.22;4.42;;;;;;;6.81;49.13;95002.82;1789478;80;21087;-72
2021/12/04 11:49:47;;;;;;;6.62;4.60;;;;;;;6.36;50.22;95002.52;1795467;79;21023;-71
2021/12/04 11:52:18;;;;;;;7.25;5.10;;;;;;;6.26;50.57;95010.92;1801846;80;21556;-71
2021/12/04 11:54:58;;;;;;;6.35;5.03;;;;;;;6.19;50.74;95003.14;1772260;79;21039;-68
2021/12/04 11:57:34;;;;;;;9.98;6.42;;;;;;;6.35;50.55;95003.41;1770525;79;21450;-69
2021/12/04 12:00:22;;;;;;;11.08;7.72;;;;;;;6.59;50.36;94995.67;1778872;80;21063;-69
2021/12/04 12:02:47;;;;;;;8.70;5.53;;;;;;;7.11;49.76;94991.03;1780205;80;21532;-66
2021/12/04 12:05:21;;;;;;;8.35;4.50;;;;;;;7.51;47.97;94986.89;1795411;80;21031;-70
2021/12/04 12:07:55;;;;;;;7.92;6.80;;;;;;;7.56;47.60;94982.46;1801170;79;21075;-69
2021/12/04 12:10:27;;;;;;;5.87;4.08;;;;;;;7.36;47.20;94982.78;1801614;80;21024;-69
2021/12/04 12:13:05;;;;;;;23.52;20.15;;;;;;;7.29;46.04;94978.06;1771424;79;21104;-70
2021/12/04 12:15:33;;;;;;;50.98;40.60;;;;;;;7.08;46.97;94975.76;1769607;80;20993;-70
2021/12/04 12:18:18;;;;;;;7.35;5.17;;;;;;;6.98;48.05;94970.23;1782132;79;21055;-69
2021/12/04 12:20:55;;;;;;;11.30;10.15;;;;;;;6.30;48.52;94971.16;1788107;80;21091;-69
2021/12/04 12:23:23;;;;;;;19.90;17.90;;;;;;;5.58;50.97;94975.36;1780236;80;21088;-69
2021/12/04 12:37:25;;;;;;;10.63;7.93;;;;;;;5.03;52.67;94974.51;1796307;79;21012;-71
2021/12/04 12:40:06;;;;;;;10.27;6.60;;;;;;;4.80;53.54;94977.28;1786048;80;21608;-72
2021/12/04 12:42:39;;;;;;;8.00;5.77;;;;;;;4.55;53.92;94979.16;1796772;80;21024;-72
2021/12/04 12:45:29;;;;;;;9.70;7.30;;;;;;;4.18;54.18;94979.77;1791810;79;21498;-72
2021/12/04 12:48:09;;;;;;;11.10;9.47;;;;;;;3.92;55.01;94981.17;1795431;80;21463;-72
2021/12/04 12:50:42;;;;;;;11.47;9.13;;;;;;;3.62;57.20;94985.13;1792800;79;21035;-71
2021/12/04 12:53:17;;;;;;;12.55;7.42;;;;;;;3.46;56.93;94981.69;1784208;80;21028;-70
2021/12/04 12:55:47;;;;;;;12.37;8.93;;;;;;;3.27;57.42;94983.00;1799926;80;21094;-72
2021/12/04 12:58:37;;;;;;;14.13;12.23;;;;;;;3.03;57.84;94978.23;1799045;80;21505;-72
2021/12/04 13:12:49;;;;;;;13.83;10.03;;;;;;;1.77;61.83;94973.97;1795732;80;21534;-72
2021/12/04 13:15:37;;;;;;;15.83;10.47;;;;;;;1.57;62.70;94967.80;1786912;80;21000;-72
2021/12/04 13:18:17;;;;;;;17.73;10.97;;;;;;;1.48;63.40;94970.75;1798446;80;21063;-73
2021/12/04 13:20:45;;;;;;;13.03;8.60;;;;;;;1.34;63.89;94965.06;1799938;80;21543;-71
2021/12/04 13:23:15;;;;;;;16.10;9.77;;;;;;;1.24;64.61;94962.38;1801355;80;20996;-71
2021/12/04 13:25:54;;;;;;;14.63;10.13;;;;;;;1.15;64.79;94967.94;1782335;79;21079;-72
2021/12/04 13:28:23;;;;;;;17.90;10.30;;;;;;;0.98;65.31;94966.09;1770533;80;21040;-72
2021/12/04 13:30:50;;;;;;;17.43;11.30;;;;;;;0.89;65.47;94966.02;1770493;79;21573;-72
2021/12/04 13:33:17;;;;;;;15.77;10.93;;;;;;;0.77;66.45;94965.91;1780593;80;21043;-72
2021/12/04 13:35:46;;;;;;;21.40;15.07;;;;;;;0.71;67.33;94964.56;1792959;80;21019;-73
2021/12/04 13:38:16;;;;;;;22.57;16.03;;;;;;;0.51;68.20;94972.16;1771660;80;21532;-73
2021/12/04 13:40:47;;;;;;;20.87;13.40;;;;;;;0.45;68.03;94969.05;1747108;80;21569;-73
2021/12/04 13:43:14;;;;;;;19.33;10.77;;;;;;;0.39;68.19;94958.19;1799358;80;21035;-73
2021/12/04 13:45:43;;;;;;;15.70;8.77;;;;;;;0.35;68.42;94960.73;1792673;80;21023;-72
2021/12/04 13:48:09;;;;;;;20.33;11.67;;;;;;;0.32;69.11;94958.11;1792894;80;21052;-72
2021/12/04 13:53:16;;;;;;;19.90;13.20;;;;;;;0.33;68.59;94954.69;1797982;80;21027;-73
2021/12/04 13:55:54;;;;;;;25.73;16.30;;;;;;;0.31;68.50;94945.57;1780097;80;21071;-72
2021/12/04 13:58:21;;;;;;;18.33;11.83;;;;;;;0.29;69.20;94944.68;1774964;80;21075;-73
2021/12/04 14:00:49;;;;;;;16.67;10.63;;;;;;;0.17;69.39;94941.52;1784245;80;21487;-72
2021/12/04 14:03:22;;;;;;;22.33;13.10;;;;;;;0.11;70.08;94952.28;1796509;80;21044;-72
2021/12/04 14:05:48;;;;;;;;;;;;;;;0.06;70.10;94951.36;1795185;79;20988;-71
2021/12/04 14:08:15;;;;;;;17.37;11.10;;;;;;;-0.05;70.32;94944.73;1795582;80;20419;-71
2021/12/04 14:10:45;;;;;;;18.80;11.87;;;;;;;-0.13;70.15;94954.15;1790519;80;21027;-71
2021/12/04 14:13:19;;;;;;;24.57;13.70;;;;;;;-0.18;70.20;94955.38;1795859;79;21047;-71
2021/12/04 14:15:47;;;;;;;30.90;17.70;;;;;;;-0.20;70.67;94958.81;1789157;79;21690;-72
2021/12/04 14:18:17;;;;;;;29.70;15.80;;;;;;;-0.24;71.18;94964.39;1796386;79;21039;-70
2021/12/04 14:20:49;;;;;;;25.93;15.27;;;;;;;-0.36;71.78;94966.83;1784858;80;21068;-70
2021/12/04 14:23:17;;;;;;;22.53;12.80;;;;;;;-0.48;71.48;94965.83;1800536;80;21032;-70
2021/12/04 14:25:44;;;;;;;21.13;12.20;;;;;;;-0.62;70.81;94975.55;1771850;79;21060;-71
2021/12/04 14:28:19;;;;;;;21.57;12.27;;;;;;;-0.76;71.99;94971.45;1770541;79;21537;-71
2021/12/04 14:30:48;;;;;;;17.17;10.27;;;;;;;-0.84;71.62;94962.28;1792555;80;21020;-70
2021/12/04 14:33:22;;;;;;;21.97;13.40;;;;;;;-0.97;72.28;94967.70;1773470;79;21044;-71
2021/12/04 14:35:53;;;;;;;22.00;12.83;;;;;;;-1.05;72.49;94964.13;1795144;80;21115;-71
2021/12/04 14:38:24;;;;;;;24.93;14.63;;;;;;;-1.13;72.93;94961.84;1775591;80;21114;-72
2021/12/04 14:40:59;;;;;;;20.83;12.73;;;;;;;-1.21;72.97;94968.20;1779820;80;21075;-72
2021/12/04 14:43:31;;;;;;;21.27;13.90;;;;;;;-1.27;72.95;94970.67;1795883;80;21020;-72
2021/12/04 14:45:58;;;;;;;18.13;9.23;;;;;;;-1.47;74.54;94974.64;1785306;79;21052;-72
2021/12/04 14:48:36;;;;;;;18.40;10.83;;;;;;;-1.64;74.19;94967.86;1770462;80;21090;-73
2021/12/04 14:51:16;;;;;;;18.87;9.70;;;;;;;-1.71;74.14;94970.78;1778534;80;21031;-73
2021/12/04 14:53:56;;;;;;;15.63;8.50;;;;;;;-1.66;74.56;94976.02;1793639;79;21035;-72